Time;durP1;ratioP1;P1;durP2;ratioP2;P2;SDS_P1;SDS_P2;PMS_P1;PMS_P2;Temp;Humidity;BMP_temperature;BMP_pressure;BME280_temperature;BME280_humidity;BME280_pressure;Samples;Min_cycle;Max_cycle;Signal;HPM_P1;HPM_P2
2023/05/08 00:01:36;;;;;;;7.15;6.55;;;;;;;18.58;67.29;95811.41;4995075;28;20230;-91
2023/05/08 00:04:13;;;;;;;6.97;6.28;;;;;;;18.59;66.82;95810.44;4991549;28;20211;-91
2023/05/08 00:06:44;;;;;;;6.80;6.20;;;;;;;18.62;66.89;95812.59;4990463;28;20202;-91
2023/05/08 00:09:17;;;;;;;7.45;6.65;;;;;;;18.63;66.98;95816.81;5005169;28;20230;-91
2023/05/08 00:11:48;;;;;;;7.03;6.43;;;;;;;18.70;66.36;95811.47;5009711;28;20217;-90
2023/05/08 00:14:21;;;;;;;7.35;6.65;;;;;;;18.76;65.97;95814.00;5009387;28;20217;-91
2023/05/08 00:17:02;;;;;;;7.13;6.43;;;;;;;18.74;65.65;95812.63;5009277;28;20202;-90
2023/05/08 00:22:53;;;;;;;6.78;6.28;;;;;;;18.77;65.44;95814.81;5000840;28;20223;-91
2023/05/08 00:25:20;;;;;;;7.40;6.70;;;;;;;18.68;64.95;95818.72;5000716;28;20233;-89
2023/05/08 00:28:00;;;;;;;7.13;6.53;;;;;;;18.56;65.27;95823.88;5009942;28;20214;-90
2023/05/08 00:30:27;;;;;;;7.53;6.88;;;;;;;18.44;65.61;95831.66;5010241;28;20206;-90
2023/05/08 00:32:53;;;;;;;8.32;6.82;;;;;;;18.40;66.14;95825.28;5001348;28;20208;-91
2023/05/08 00:35:29;;;;;;;8.38;7.00;;;;;;;18.44;66.35;95834.25;4974722;28;20200;-91
2023/05/08 00:38:14;;;;;;;7.38;6.57;;;;;;;18.43;65.92;95830.06;4994616;28;20291;-91
2023/05/08 00:40:41;;;;;;;6.88;6.18;;;;;;;18.50;65.68;95832.56;5003850;28;20254;-91
2023/05/08 00:43:11;;;;;;;7.32;6.65;;;;;;;18.56;65.50;95826.47;4989173;28;20306;-91
2023/05/08 00:45:41;;;;;;;6.97;6.38;;;;;;;18.60;65.57;95830.28;5003911;28;20566;-91
2023/05/08 00:48:22;;;;;;;6.75;6.15;;;;;;;18.65;64.88;95824.41;5008973;28;20312;-91
2023/05/08 00:50:56;;;;;;;7.63;6.93;;;;;;;18.67;64.72;95820.53;5008512;28;20281;-90
2023/05/08 00:53:27;;;;;;;9.07;6.95;;;;;;;18.58;65.16;95827.84;5004562;28;20198;-90
2023/05/08 00:56:00;;;;;;;9.32;7.20;;;;;;;18.39;65.14;95828.09;5012820;28;20266;-91
2023/05/08 00:58:32;;;;;;;7.75;7.05;;;;;;;18.19;66.16;95823.91;5012679;28;20301;-91
2023/05/08 01:01:25;;;;;;;;;;;;;;;;;;;;;
2023/05/08 01:03:52;;;;;;;7.55;6.65;;;;;;;18.20;66.51;95828.13;5000601;28;20648;-91
2023/05/08 01:06:20;;;;;;;7.75;7.10;;;;;;;18.22;66.55;95828.69;5003631;28;20668;-91
2023/05/08 01:08:48;;;;;;;7.70;6.97;;;;;;;18.10;66.50;95825.19;5011979;28;20250;-90
2023/05/08 01:11:29;;;;;;;7.50;6.80;;;;;;;18.11;66.99;95834.63;4993029;28;20772;-91
2023/05/08 01:14:11;;;;;;;7.53;6.82;;;;;;;18.19;66.78;95831.72;5011751;28;20226;-91
2023/05/08 01:16:43;;;;;;;7.13;6.53;;;;;;;18.13;66.85;95831.78;5010928;28;20202;-90
2023/05/08 01:22:36;;;;;;;8.60;7.90;;;;;;;18.10;67.03;95833.03;4964502;28;20650;-91
2023/05/08 01:25:33;;;;;;;8.13;7.38;;;;;;;18.17;66.77;95838.16;4983834;28;20205;-91
2023/05/08 01:28:37;;;;;;;8.27;7.05;;;;;;;18.23;67.09;95839.91;4997033;28;20238;-91
2023/05/08 01:31:26;;;;;;;7.22;6.63;;;;;;;18.24;68.02;95839.69;4972421;28;20211;-91
2023/05/08 01:34:03;;;;;;;7.15;6.53;;;;;;;18.22;68.65;95843.53;4980114;28;20200;-91
2023/05/08 01:36:37;;;;;;;7.78;7.07;;;;;;;18.19;68.81;95849.97;4993085;28;20264;-90
2023/05/08 01:39:13;;;;;;;7.30;6.70;;;;;;;18.26;68.49;95844.69;4973234;28;20224;-91
2023/05/08 01:41:46;;;;;;;6.97;6.38;;;;;;;18.27;69.04;95857.53;4985839;28;20703;-90
2023/05/08 01:44:21;;;;;;;7.65;6.93;;;;;;;18.27;68.46;95857.53;4994475;28;20306;-91
2023/05/08 01:46:49;;;;;;;7.47;6.88;;;;;;;18.22;68.58;95854.75;5010968;28;20679;-91
2023/05/08 01:49:45;;;;;;;7.45;6.75;;;;;;;18.12;68.48;95851.84;5011180;28;20214;-91
2023/05/08 01:52:36;;;;;;;7.35;6.70;;;;;;;17.99;70.45;95864.22;4975711;28;20231;-91
2023/05/08 01:55:17;;;;;;;7.30;6.70;;;;;;;17.95;69.91;95861.25;4986200;28;20857;-90
2023/05/08 01:57:49;;;;;;;8.93;8.02;;;;;;;17.84;67.73;95860.16;5010593;28;20214;-90
2023/05/08 02:00:24;;;;;;;8.80;8.00;;;;;;;17.80;68.13;95861.59;5005394;28;20646;-90
2023/05/08 02:03:00;;;;;;;8.85;7.97;;;;;;;17.67;68.74;95860.91;5001582;28;20226;-91
2023/05/08 02:05:29;;;;;;;9.50;8.60;;;;;;;17.62;68.11;95861.53;4992243;28;20195;-90
2023/05/08 02:08:00;;;;;;;8.85;8.05;;;;;;;17.75;67.90;95858.81;5010629;28;20229;-90
2023/05/08 02:10:28;;;;;;;9.10;8.18;;;;;;;17.72;67.65;95856.66;4998702;28;20196;-91
2023/05/08 02:15:58;;;;;;;9.40;8.50;;;;;;;17.56;68.23;95867.56;5004974;28;20235;-91
2023/05/08 02:18:34;;;;;;;9.57;8.73;;;;;;;17.46;68.40;95872.47;5007377;28;20269;-91
2023/05/08 02:21:03;;;;;;;9.43;8.52;;;;;;;17.43;69.01;95871.09;4992171;28;20203;-91
2023/05/08 02:23:51;;;;;;;10.00;9.10;;;;;;;17.38;69.03;95867.50;4991135;28;20369;-91
2023/05/08 02:26:29;;;;;;;9.73;8.73;;;;;;;17.40;69.36;95863.69;4991411;28;20211;-90
2023/05/08 02:29:05;;;;;;;10.55;9.05;;;;;;;17.32;68.46;95870.97;4990446;28;20250;-91
2023/05/08 02:31:51;;;;;;;9.30;8.40;;;;;;;17.40;67.88;95866.31;5008816;28;20199;-91
2023/05/08 02:34:19;;;;;;;9.50;8.65;;;;;;;17.33;67.38;95873.34;5004256;28;20203;-91
2023/05/08 02:36:51;;;;;;;9.98;9.07;;;;;;;17.22;67.08;95877.44;4981517;28;20195;-90
2023/05/08 02:39:25;;;;;;;9.30;8.50;;;;;;;17.15;67.01;95876.69;5011020;28;20202;-91
2023/05/08 02:41:52;;;;;;;9.80;8.90;;;;;;;17.22;67.10;95879.25;4995613;28;20339;-91
2023/05/08 02:44:19;;;;;;;9.88;8.88;;;;;;;17.23;66.57;95879.03;4990995;28;20211;-90
2023/05/08 02:46:53;;;;;;;9.75;8.85;;;;;;;17.08;67.22;95875.94;4981141;28;20877;-91
2023/05/08 02:49:37;;;;;;;9.38;8.57;;;;;;;17.26;67.38;95878.63;5010377;28;20215;-91
2023/05/08 02:52:10;;;;;;;9.10;7.80;;;;;;;17.40;66.86;95873.31;5011096;28;20187;-90
2023/05/08 02:54:42;;;;;;;8.48;7.72;;;;;;;17.50;66.62;95879.66;5011289;28;20203;-90
2023/05/08 02:57:14;;;;;;;8.52;7.53;;;;;;;17.51;66.05;95877.84;5010221;28;20221;-90
2023/05/08 02:59:46;;;;;;;8.45;7.65;;;;;;;17.58;66.39;95874.16;5010911;28;20235;-91
2023/05/08 03:02:28;;;;;;;9.25;8.35;;;;;;;17.58;65.71;95876.78;5005733;28;20270;-91
2023/05/08 03:05:10;;;;;;;9.05;8.20;;;;;;;17.20;66.47;95881.25;4998577;28;20218;-90
2023/05/08 03:07:56;;;;;;;9.00;8.20;;;;;;;17.06;67.16;95888.34;5010105;28;20219;-91
2023/05/08 03:10:45;;;;;;;9.23;8.43;;;;;;;16.92;67.83;95887.63;4997199;28;20253;-90
2023/05/08 03:13:15;;;;;;;9.25;8.45;;;;;;;16.74;68.87;95882.31;4989911;28;20203;-90
2023/05/08 03:16:11;;;;;;;9.60;8.60;;;;;;;16.82;68.46;95887.28;4994461;28;20203;-90
2023/05/08 03:18:54;;;;;;;8.75;7.90;;;;;;;16.68;68.77;95885.75;4984434;28;20227;-90
2023/05/08 03:21:24;;;;;;;9.15;8.25;;;;;;;16.60;69.24;95885.94;4990097;28;20289;-90
2023/05/08 03:24:18;;;;;;;8.18;7.47;;;;;;;16.75;68.97;95885.69;4989994;28;20223;-91
2023/05/08 03:26:45;;;;;;;8.57;7.80;;;;;;;16.94;67.53;95890.00;5008754;28;20203;-90
2023/05/08 03:29:33;;;;;;;8.02;7.22;;;;;;;16.93;67.34;95889.19;5009647;28;20235;-91
2023/05/08 03:32:02;;;;;;;8.20;7.50;;;;;;;16.98;67.15;95891.19;5009893;28;20202;-91
2023/05/08 03:34:30;;;;;;;7.20;6.50;;;;;;;17.04;66.45;95892.16;5001595;28;20199;-90
2023/05/08 03:36:56;;;;;;;7.63;7.03;;;;;;;16.96;66.82;95897.59;5001242;28;20194;-90
2023/05/08 03:39:37;;;;;;;7.40;6.70;;;;;;;16.95;67.23;95898.59;5009368;28;20680;-90
2023/05/08 03:42:07;;;;;;;7.38;6.68;;;;;;;16.97;67.11;95888.78;4994406;28;20226;-90
2023/05/08 03:44:43;;;;;;;8.05;6.82;;;;;;;16.88;66.74;95896.84;5008988;28;20202;-90
2023/05/08 03:47:17;;;;;;;7.60;6.90;;;;;;;16.71;67.69;95895.75;5009133;28;20232;-91
2023/05/08 03:49:48;;;;;;;7.20;6.50;;;;;;;16.73;67.49;95890.34;5009600;28;20217;-90
2023/05/08 03:55:38;;;;;;;7.85;7.00;;;;;;;16.75;66.70;95903.91;4980871;28;20822;-90
2023/05/08 03:58:40;;;;;;;7.68;6.97;;;;;;;16.64;67.08;95905.34;5007263;28;20222;-91
2023/05/08 04:01:39;;;;;;;7.53;6.80;;;;;;;16.33;67.68;95908.63;4997890;28;20199;-90
2023/05/08 04:04:10;;;;;;;7.47;6.85;;;;;;;16.24;67.76;95909.84;4998067;28;20223;-91
2023/05/08 04:06:46;;;;;;;7.50;6.85;;;;;;;16.01;68.61;95902.50;4997092;28;20259;-86
2023/05/08 04:09:20;;;;;;;7.90;7.20;;;;;;;15.97;68.79;95911.69;4986484;28;20644;-86
2023/05/08 04:11:57;;;;;;;8.38;7.32;;;;;;;15.86;69.19;95905.31;4989503;28;20207;-86
2023/05/08 04:14:30;;;;;;;7.65;7.03;;;;;;;16.00;68.79;95915.69;5008257;28;20206;-89
2023/05/08 04:17:02;;;;;;;6.95;6.30;;;;;;;16.20;68.29;95921.66;5006709;28;20231;-88
2023/05/08 04:19:42;;;;;;;7.78;7.03;;;;;;;15.93;68.57;95918.31;4988146;28;20204;-89
2023/05/08 04:22:11;;;;;;;7.82;6.95;;;;;;;15.98;68.67;95922.88;5003764;28;20292;-89
2023/05/08 04:24:43;;;;;;;7.68;6.93;;;;;;;16.01;68.43;95923.28;4988059;28;20242;-89
2023/05/08 04:27:17;;;;;;;7.90;7.15;;;;;;;16.07;68.49;95926.88;4985397;28;20227;-89
2023/05/08 04:29:44;;;;;;;7.40;6.70;;;;;;;16.20;68.05;95927.63;4987827;28;20253;-88
2023/05/08 04:32:20;;;;;;;7.57;6.90;;;;;;;16.28;67.57;95931.03;4991982;28;20208;-89
2023/05/08 04:34:50;;;;;;;8.02;7.22;;;;;;;16.20;67.31;95932.03;4992278;28;20203;-89
2023/05/08 04:37:30;;;;;;;10.75;6.78;;;;;;;16.13;67.46;95926.88;4989809;28;20224;-89
2023/05/08 04:39:57;;;;;;;7.80;7.00;;;;;;;16.17;66.92;95930.63;4990682;28;20629;-88
2023/05/08 04:42:28;;;;;;;7.35;6.75;;;;;;;16.29;66.64;95932.63;4992250;28;20227;-88
2023/05/08 04:45:01;;;;;;;7.75;7.07;;;;;;;16.30;66.44;95940.22;4988827;28;20203;-89
2023/05/08 04:47:45;;;;;;;7.70;7.00;;;;;;;16.34;66.17;95938.81;4988212;28;20215;-89
2023/05/08 04:50:11;;;;;;;7.30;6.60;;;;;;;16.23;66.17;95942.81;4989244;28;20203;-88
2023/05/08 04:52:44;;;;;;;7.43;6.82;;;;;;;16.06;66.83;95940.84;4986953;28;20211;-89
2023/05/08 04:55:23;;;;;;;;;;;;;;;;;;;;;
2023/05/08 04:57:54;;;;;;;7.13;6.50;;;;;;;16.25;66.31;95955.63;4989911;28;20218;-89
2023/05/08 05:00:27;;;;;;;7.65;6.95;;;;;;;16.09;66.80;95948.25;4991869;28;20199;-90
2023/05/08 05:03:11;;;;;;;7.18;6.57;;;;;;;15.97;67.04;95949.88;4991673;28;20219;-89
2023/05/08 05:06:05;;;;;;;7.40;6.72;;;;;;;15.94;67.57;95958.06;4994393;28;20195;-89
2023/05/08 05:09:03;;;;;;;;;;;;;;;;;;;;;
2023/05/08 05:17:27;;;;;;;7.57;6.78;;;;;;;16.30;66.03;95966.22;4991954;28;20219;-88
2023/05/08 05:22:56;;;;;;;7.35;6.47;;;;;;;16.49;65.52;95967.97;4979316;28;20231;-88
2023/05/08 05:25:35;;;;;;;6.82;6.18;;;;;;;16.51;64.93;95971.16;4990153;28;20254;-89
2023/05/08 05:28:24;;;;;;;7.10;6.50;;;;;;;16.44;65.25;95966.97;5000795;28;20215;-89
2023/05/08 05:30:53;;;;;;;7.03;6.43;;;;;;;16.29;65.84;95969.00;5006381;28;20214;-89
2023/05/08 05:33:28;;;;;;;7.40;6.80;;;;;;;16.30;66.29;95973.22;4997863;28;20280;-89
2023/05/08 05:35:54;;;;;;;9.57;7.68;;;;;;;16.10;67.00;95971.44;5005669;28;20203;-89
2023/05/08 05:38:27;;;;;;;8.55;7.53;;;;;;;16.07;66.71;95978.81;5009183;28;20708;-89
2023/05/08 05:41:31;;;;;;;8.45;7.45;;;;;;;15.93;67.52;95979.84;5002395;28;20218;-89
2023/05/08 05:47:13;;;;;;;28.42;25.33;;;;;;;15.92;67.72;95986.03;4997865;28;20282;-90
2023/05/08 05:50:08;;;;;;;8.35;7.57;;;;;;;15.96;66.58;95989.81;5009402;28;20206;-90
2023/05/08 05:52:56;;;;;;;8.52;7.03;;;;;;;15.83;67.79;95990.59;4968370;28;20199;-89
2023/05/08 05:55:32;;;;;;;;;;;;;;;;;;;;;
2023/05/08 05:58:03;;;;;;;7.97;7.18;;;;;;;16.06;67.59;95996.19;4994169;28;20318;-90
2023/05/08 06:01:06;;;;;;;;;;;;;;;;;;;;;
2023/05/08 06:04:41;;;;;;;;;;;;;;;;;;;;;
2023/05/08 06:07:46;;;;;;;8.00;7.20;;;;;;;15.92;67.98;95999.81;4964163;28;20202;-90
2023/05/08 06:13:42;;;;;;;9.10;7.15;;;;;;;15.63;69.47;96002.75;5000898;28;20284;-88
2023/05/08 06:16:14;;;;;;;7.47;6.78;;;;;;;15.46;70.46;96000.50;4989356;28;20207;-88
2023/05/08 06:18:42;;;;;;;8.30;7.50;;;;;;;15.60;69.85;96001.34;4989566;28;20255;-90
2023/05/08 06:21:31;;;;;;;8.30;7.47;;;;;;;15.71;69.76;96003.38;4988862;28;20218;-89
2023/05/08 06:30:57;;;;;;;8.98;8.07;;;;;;;15.58;69.18;96005.16;4887111;29;20285;-90
2023/05/08 06:37:12;;;;;;;;;;;;;;;;;;;;;
2023/05/08 06:39:45;;;;;;;9.35;8.45;;;;;;;15.60;69.47;96010.94;4836376;29;20212;-91
2023/05/08 06:52:05;;;;;;;9.13;8.23;;;;;;;15.23;71.70;96013.00;5131311;23;20223;-91
2023/05/08 07:09:58;;;;;;;9.30;8.50;;;;;;;15.60;68.01;96032.50;5281479;23;20242;-90
2023/05/08 07:23:59;;;;;;;8.43;7.63;;;;;;;15.76;68.23;96023.56;4823778;29;20207;-89
2023/05/08 07:26:27;;;;;;;8.88;7.72;;;;;;;15.93;68.23;96026.56;4851507;29;20214;-89
2023/05/08 07:28:54;;;;;;;11.57;7.63;;;;;;;16.06;67.43;96034.38;4987804;28;20231;-90
2023/05/08 07:31:51;;;;;;;14.40;13.00;;;;;;;15.97;67.27;96030.38;4975059;28;20204;-89
2023/05/08 07:34:36;;;;;;;12.32;11.13;;;;;;;15.73;67.68;96040.34;4970351;28;20203;-89
2023/05/08 07:37:02;;;;;;;10.00;8.93;;;;;;;15.56;68.55;96035.72;4969354;28;20417;-91
2023/05/08 07:39:29;;;;;;;9.13;8.23;;;;;;;15.63;69.14;96033.91;4970180;28;20679;-90
2023/05/08 07:41:57;;;;;;;8.80;7.90;;;;;;;15.75;67.98;96035.75;4964167;28;20200;-90
2023/05/08 07:44:24;;;;;;;8.75;7.90;;;;;;;15.82;67.43;96033.94;4971221;28;20216;-90
2023/05/08 07:46:59;;;;;;;8.68;7.88;;;;;;;15.60;68.05;96032.50;4971077;28;20215;-90
2023/05/08 07:57:11;;;;;;;8.95;8.15;;;;;;;15.71;67.57;96036.34;4874428;29;20210;-90
2023/05/08 08:00:05;;;;;;;8.73;7.75;;;;;;;15.95;67.40;96050.56;4868595;29;20207;-90
2023/05/08 08:02:34;;;;;;;8.75;7.53;;;;;;;16.16;66.60;96038.16;4869914;29;20228;-89
2023/05/08 08:05:31;;;;;;;8.63;7.82;;;;;;;16.42;66.83;96039.16;4877445;29;20278;-90
2023/05/08 08:07:58;;;;;;;8.50;7.70;;;;;;;16.52;66.07;96032.56;4805210;29;20321;-90
2023/05/08 08:10:24;;;;;;;8.25;7.53;;;;;;;16.73;65.46;96038.56;4862488;29;20309;-86
2023/05/08 08:13:45;;;;;;;11.93;8.00;;;;;;;16.90;64.28;96037.91;4940642;28;20240;-86
2023/05/08 08:16:13;;;;;;;9.10;8.07;;;;;;;16.91;63.25;96039.50;4957810;28;20686;-86
2023/05/08 08:18:40;;;;;;;8.73;7.65;;;;;;;16.91;62.97;96036.91;4966769;28;20230;-87
2023/05/08 08:21:15;;;;;;;8.13;7.43;;;;;;;16.92;63.02;96038.50;4974899;28;20196;-88
2023/05/08 08:23:42;;;;;;;10.52;8.30;;;;;;;16.96;63.04;96038.06;4974707;28;20253;-87
2023/05/08 08:26:08;;;;;;;18.48;16.58;;;;;;;17.04;62.91;96038.66;4974610;28;20295;-88
2023/05/08 08:28:35;;;;;;;17.88;15.32;;;;;;;17.08;62.10;96044.25;5064376;23;20230;-89
2023/05/08 08:34:55;;;;;;;8.95;8.05;;;;;;;17.33;61.32;96036.53;4911970;29;20285;-89
2023/05/08 08:37:22;;;;;;;9.00;7.95;;;;;;;17.60;61.97;96038.81;4983288;28;20231;-89
2023/05/08 08:40:04;;;;;;;9.05;8.35;;;;;;;17.60;60.21;96038.81;4992190;28;20375;-91
2023/05/08 08:42:48;;;;;;;9.20;8.30;;;;;;;17.81;60.31;96047.34;4986843;28;20192;-90
2023/05/08 08:45:41;;;;;;;10.68;8.55;;;;;;;17.86;59.88;96039.69;4989335;28;20255;-91
2023/05/08 08:48:23;;;;;;;9.05;8.18;;;;;;;18.01;61.55;96040.19;4994279;28;20928;-91
2023/05/08 08:51:12;;;;;;;9.00;8.07;;;;;;;18.27;59.25;96039.19;5001912;28;20194;-90
2023/05/08 08:53:46;;;;;;;9.80;8.80;;;;;;;18.64;58.71;96029.66;4971728;28;20291;-90
2023/05/08 08:56:16;;;;;;;9.02;8.23;;;;;;;18.89;57.63;96025.16;4990147;28;20202;-90
2023/05/08 08:59:00;;;;;;;;;;;;;;;;;;;;;
2023/05/08 09:01:31;;;;;;;20.83;18.63;;;;;;;19.51;56.21;96017.22;4991856;28;20576;-91
2023/05/08 09:04:26;;;;;;;11.07;10.07;;;;;;;19.79;54.56;96021.88;4990434;28;20223;-90
2023/05/08 09:10:59;;;;;;;9.65;8.75;;;;;;;19.56;56.33;96022.59;4895152;29;20209;-90
2023/05/08 09:23:31;;;;;;;;;;;;;;;;;;;;;
2023/05/08 09:29:22;;;;;;;9.35;8.40;;;;;;;19.75;54.37;96031.97;4929100;28;20222;-89
2023/05/08 09:32:07;;;;;;;9.88;9.00;;;;;;;19.86;53.83;96031.19;4989772;28;20258;-89
2023/05/08 09:35:07;;;;;;;8.98;8.18;;;;;;;20.05;54.51;96031.13;4990589;28;20286;-88
2023/05/08 09:38:28;;;;;;;;;;;;;;;;;;;;;
2023/05/08 09:41:27;;;;;;;;;;;;;;;;;;;;;
2023/05/08 09:44:43;;;;;;;10.65;9.60;;;;;;;19.87;52.07;96035.41;4967055;28;20227;-90
2023/05/08 09:50:33;;;;;;;11.65;10.65;;;;;;;19.67;53.45;96037.50;4987740;28;20199;-90
2023/05/08 09:53:31;;;;;;;10.95;9.90;;;;;;;19.57;54.24;96037.25;4989862;28;20561;-90
2023/05/08 09:56:57;;;;;;;15.48;10.57;;;;;;;19.58;53.92;96034.41;4981853;28;20223;-89
2023/05/08 10:06:21;;;;;;;11.55;10.35;;;;;;;20.61;52.26;96038.47;4887134;29;20214;-90
2023/05/08 10:09:38;;;;;;;;;;;;;;;;;;;;;
2023/05/08 10:21:47;;;;;;;12.20;11.00;;;;;;;20.31;53.54;96028.09;4970688;28;20246;-90
2023/05/08 10:31:28;;;;;;;11.95;10.85;;;;;;;20.53;52.71;96026.56;4939226;28;20295;-90
2023/05/08 10:41:22;;;;;;;11.07;10.07;;;;;;;20.43;53.36;96025.50;4801054;29;20299;-90
2023/05/08 10:51:32;;;;;;;;;;;;;;;;;;;;;
2023/05/08 10:58:26;;;;;;;20.45;18.45;;;;;;;20.77;53.84;96009.03;4757388;29;20223;-90
2023/05/08 11:01:56;;;;;;;;;;;;;;;;;;;;;
2023/05/08 11:41:47;;;;;;;13.63;12.43;;;;;;;20.35;53.64;96001.28;4915907;29;20272;-86
2023/05/08 11:44:22;;;;;;;12.95;11.80;;;;;;;20.37;52.94;96003.69;4933042;29;22095;-87
2023/05/08 11:47:25;;;;;;;;;;;;;;;;;;;;;
2023/05/08 11:50:28;;;;;;;;;;;;;;;;;;;;;
2023/05/08 11:53:30;;;;;;;12.43;11.27;;;;;;;20.46;53.77;96004.94;5006308;28;20727;-89
2023/05/08 11:59:51;;;;;;;11.35;10.27;;;;;;;20.48;53.36;96002.09;4932679;28;20248;-91
2023/05/08 12:03:37;;;;;;;;;;;;;;;;;;;;;
2023/05/08 12:06:19;;;;;;;11.18;10.18;;;;;;;20.60;52.73;95995.81;4960278;28;20242;-92
2023/05/08 13:15:30;;;;;;;;;;;;;;;;;;;;;
2023/05/08 13:21:26;;;;;;;12.80;11.55;;;;;;;19.86;53.72;95999.03;4937335;29;20256;-91
2023/05/08 13:34:25;;;;;;;;;;;;;;;;;;;;;
2023/05/08 13:43:35;;;;;;;;;;;;;;;;;;;;;
2023/05/08 14:01:31;;;;;;;13.10;11.90;;;;;;;19.38;55.29;95983.44;4921282;29;20213;-91
2023/05/08 15:08:28;;;;;;;11.90;10.80;;;;;;;19.13;54.02;95983.53;4945113;28;20243;-92
2023/05/08 15:11:59;;;;;;;11.70;10.65;;;;;;;19.26;54.47;95978.94;4959931;28;20199;-90
2023/05/08 15:14:59;;;;;;;11.32;10.23;;;;;;;19.11;54.02;95983.75;4951876;28;20211;-90
2023/05/08 15:18:16;;;;;;;11.30;10.20;;;;;;;19.19;54.98;95977.47;4947412;28;20227;-90
2023/05/08 15:20:45;;;;;;;12.38;10.95;;;;;;;19.03;54.36;95984.09;5010854;28;20206;-90
2023/05/08 15:23:25;;;;;;;12.27;11.20;;;;;;;18.91;55.11;95986.63;5037162;28;20202;-90
2023/05/08 15:26:22;;;;;;;12.68;11.40;;;;;;;18.98;54.74;95982.13;5029379;28;20221;-90
2023/05/08 15:31:49;;;;;;;12.10;11.10;;;;;;;19.04;55.09;95988.28;5024656;28;20233;-89
2023/05/08 15:34:26;;;;;;;13.13;11.82;;;;;;;19.00;55.44;95988.94;5028026;28;20198;-90
2023/05/08 15:36:54;;;;;;;12.38;11.27;;;;;;;18.91;55.11;95991.81;5027493;28;20236;-90
2023/05/08 15:39:24;;;;;;;12.43;11.43;;;;;;;18.84;55.36;95985.91;5026526;28;20222;-89
2023/05/08 15:41:52;;;;;;;13.88;12.60;;;;;;;18.74;55.15;95985.59;5026241;28;20194;-90
2023/05/08 15:44:23;;;;;;;13.45;12.07;;;;;;;18.60;55.63;95984.16;5025167;28;20248;-90
2023/05/08 15:46:52;;;;;;;12.70;11.50;;;;;;;18.49;56.24;95987.44;5028429;28;20225;-90
2023/05/08 15:49:24;;;;;;;12.90;11.80;;;;;;;18.42;56.33;95981.50;5025976;28;20761;-90
2023/05/08 15:51:51;;;;;;;12.82;11.52;;;;;;;18.51;56.22;95975.78;5027701;28;20200;-91
2023/05/08 15:54:33;;;;;;;13.00;11.80;;;;;;;18.67;56.09;95977.03;5028243;28;20802;-90
2023/05/08 15:57:05;;;;;;;12.95;11.65;;;;;;;18.78;55.05;95978.94;5026557;28;20202;-91
2023/05/08 15:59:32;;;;;;;12.63;11.35;;;;;;;18.76;54.90;95972.34;5028150;28;20616;-90
2023/05/08 16:01:58;;;;;;;12.07;11.07;;;;;;;18.79;54.80;95975.31;5026784;28;20191;-90
2023/05/08 16:04:47;;;;;;;11.27;10.32;;;;;;;18.79;55.20;95972.72;5025907;28;20241;-89
2023/05/08 16:07:20;;;;;;;11.00;9.88;;;;;;;18.78;53.59;95975.53;5029156;28;20202;-89
2023/05/08 16:09:51;;;;;;;10.90;10.00;;;;;;;18.73;53.71;95970.16;5027281;28;20186;-90
2023/05/08 16:18:24;;;;;;;17.40;15.68;;;;;;;18.95;54.04;95968.72;5028373;28;20699;-94
2023/05/08 16:21:10;;;;;;;11.65;10.48;;;;;;;18.88;54.26;95970.59;5035968;28;20281;-89
2023/05/08 16:26:25;;;;;;;12.35;11.25;;;;;;;18.54;55.37;95959.69;5029584;28;20241;-88
2023/05/08 16:28:51;;;;;;;11.57;10.38;;;;;;;18.58;55.28;95957.47;5031230;28;20218;-89
2023/05/08 16:31:25;;;;;;;13.85;12.55;;;;;;;18.42;55.75;95963.25;5028839;28;20198;-88
2023/05/08 16:34:05;;;;;;;12.80;11.60;;;;;;;18.48;55.49;95959.75;5029375;28;20230;-89
2023/05/08 16:36:31;;;;;;;13.15;11.95;;;;;;;18.38;55.88;95962.88;5029549;28;20208;-89
2023/05/08 16:39:07;;;;;;;12.93;11.63;;;;;;;18.42;55.86;95969.25;5027209;28;20210;-90
2023/05/08 16:42:26;;;;;;;12.35;11.07;;;;;;;18.27;55.78;95961.78;5032776;28;20190;-90
2023/05/08 16:48:29;;;;;;;12.55;11.45;;;;;;;18.10;56.85;95965.13;5024202;28;20233;-90
2023/05/08 16:51:10;;;;;;;12.38;11.27;;;;;;;18.07;56.54;95958.56;5036471;28;20229;-91
2023/05/08 16:54:11;;;;;;;12.98;11.38;;;;;;;18.12;56.49;95965.72;5045045;28;20237;-90
2023/05/08 16:56:40;;;;;;;11.65;10.68;;;;;;;18.18;56.22;95964.88;5040587;28;20218;-90
2023/05/08 16:59:13;;;;;;;12.50;11.30;;;;;;;18.17;56.40;95966.69;5031860;28;20225;-90
2023/05/08 17:05:10;;;;;;;12.25;11.18;;;;;;;18.27;56.22;95979.25;4949903;28;20210;-90
2023/05/08 17:07:36;;;;;;;13.50;12.15;;;;;;;18.29;55.95;95975.38;5031582;28;20217;-90
2023/05/08 17:10:14;;;;;;;13.65;12.48;;;;;;;18.24;57.26;95988.28;5032536;28;20206;-91
2023/05/08 17:12:44;;;;;;;12.85;11.75;;;;;;;18.21;56.74;95990.50;5024436;28;20671;-90
2023/05/08 17:18:35;;;;;;;13.05;11.85;;;;;;;17.88;56.68;95985.59;4989330;28;20225;-90
2023/05/08 17:21:04;;;;;;;12.70;11.60;;;;;;;17.89;57.05;95995.00;5032769;28;20651;-90
2023/05/08 17:26:24;;;;;;;12.95;11.75;;;;;;;17.91;57.13;95998.16;5029754;28;20226;-90
2023/05/08 17:28:51;;;;;;;12.82;11.50;;;;;;;17.87;57.05;95997.00;5182845;23;20237;-90
2023/05/08 17:31:20;;;;;;;25.40;22.92;;;;;;;17.89;56.65;95997.59;5000363;28;20226;-90
2023/05/08 17:33:47;;;;;;;12.57;11.50;;;;;;;17.83;57.08;95999.22;5010991;28;20207;-89
2023/05/08 17:36:30;;;;;;;12.45;11.35;;;;;;;17.78;57.24;96006.88;5010645;28;20575;-89
2023/05/08 17:38:57;;;;;;;12.35;11.25;;;;;;;17.82;57.52;96007.25;5010938;28;20250;-89
2023/05/08 17:41:23;;;;;;;12.55;11.35;;;;;;;17.77;57.43;96002.66;5000282;28;20203;-90
2023/05/08 17:43:50;;;;;;;11.95;10.95;;;;;;;17.80;57.04;95997.03;4990944;28;20235;-90
2023/05/08 17:46:16;;;;;;;12.48;11.30;;;;;;;17.82;57.27;96009.84;4991093;28;20270;-88
2023/05/08 17:51:52;;;;;;;12.13;10.93;;;;;;;17.82;58.06;96015.06;4929124;29;20333;-89
2023/05/08 17:57:56;;;;;;;13.10;11.90;;;;;;;17.94;59.06;96018.56;4929812;29;20662;-89
2023/05/08 18:00:29;;;;;;;12.38;11.38;;;;;;;17.95;58.88;96026.19;4939032;29;20292;-90
2023/05/08 18:02:55;;;;;;;11.93;10.93;;;;;;;18.00;58.56;96014.34;4937335;29;20233;-90
2023/05/08 18:05:34;;;;;;;14.32;12.88;;;;;;;17.95;58.57;96020.19;4941541;28;20199;-89
2023/05/08 18:08:02;;;;;;;12.93;11.73;;;;;;;17.83;59.04;96025.28;5010506;28;20227;-89
2023/05/08 18:10:39;;;;;;;13.13;11.82;;;;;;;17.78;59.81;96025.09;4995563;28;20621;-91
2023/05/08 18:13:05;;;;;;;13.32;11.93;;;;;;;17.75;59.90;96022.91;4985064;28;20203;-90
2023/05/08 18:15:41;;;;;;;13.88;12.68;;;;;;;17.84;60.31;96028.69;4990600;28;20214;-90
2023/05/08 18:18:14;;;;;;;13.82;12.23;;;;;;;17.90;59.73;96027.81;5097604;23;20241;-89
2023/05/08 18:20:43;;;;;;;12.90;11.63;;;;;;;17.81;60.06;96021.28;5049464;28;20630;-89
2023/05/08 18:26:17;;;;;;;14.95;13.20;;;;;;;17.63;60.40;96034.19;5048520;28;20221;-89
2023/05/08 18:28:44;;;;;;;12.68;11.57;;;;;;;17.59;59.90;96034.59;5044914;28;20214;-89
2023/05/08 18:31:24;;;;;;;14.15;12.60;;;;;;;17.60;59.84;96038.00;5028854;28;20779;-89
2023/05/08 18:34:15;;;;;;;13.73;12.52;;;;;;;17.63;59.87;96035.00;5029189;28;20208;-90
2023/05/08 18:37:12;;;;;;;13.57;12.38;;;;;;;17.60;59.95;96036.22;5013935;28;20229;-89
2023/05/08 18:39:54;;;;;;;12.80;11.48;;;;;;;17.51;60.48;96037.44;5029268;28;20707;-89
2023/05/08 18:42:33;;;;;;;14.68;13.20;;;;;;;17.53;60.72;96039.84;5025131;28;20228;-89
2023/05/08 18:45:15;;;;;;;14.07;12.75;;;;;;;17.53;60.43;96034.63;5029823;28;20212;-90
2023/05/08 18:47:52;;;;;;;15.18;13.68;;;;;;;17.51;60.47;96039.28;5028175;28;20222;-91
2023/05/08 18:50:19;;;;;;;13.82;12.52;;;;;;;17.50;60.56;96038.47;5029788;28;20213;-90
2023/05/08 18:52:46;;;;;;;12.98;11.88;;;;;;;17.44;60.56;96041.09;5029819;28;20194;-91
2023/05/08 18:55:14;;;;;;;15.02;13.63;;;;;;;17.43;60.52;96036.91;5030705;28;20268;-89
2023/05/08 18:57:46;;;;;;;15.23;13.68;;;;;;;17.45;60.47;96047.91;5031492;28;20222;-89
2023/05/08 19:00:45;;;;;;;14.30;12.90;;;;;;;17.42;60.47;96041.31;5032720;28;20221;-89
2023/05/08 19:03:30;;;;;;;14.38;12.98;;;;;;;17.47;60.49;96041.50;4948478;29;20256;-89
2023/05/08 19:06:00;;;;;;;14.45;12.95;;;;;;;17.44;59.99;96036.69;4980557;28;20201;-90
2023/05/08 19:08:27;;;;;;;13.82;12.63;;;;;;;17.33;60.32;96050.34;5017019;28;20280;-90
2023/05/08 19:11:04;;;;;;;13.55;12.38;;;;;;;17.35;60.33;96040.53;5026268;28;20198;-90
2023/05/08 19:13:31;;;;;;;13.77;12.48;;;;;;;17.22;59.74;96040.59;5029980;28;20236;-90
2023/05/08 19:15:57;;;;;;;13.98;12.73;;;;;;;17.22;59.67;96041.41;5029048;28;20209;-90